sensor_id;sensor_type;location;lat;lon;timestamp;pressure;altitude;pressure_sealevel;temperature;humidity
5913;BME280;2982;42.684;23.356;2022-09-09T00:01:59;95128.63;;;17.47;100.00
5913;BME280;2982;42.684;23.356;2022-09-09T00:04:28;95122.69;;;17.47;100.00
5913;BME280;2982;42.684;23.356;2022-09-09T00:07:10;95123.75;;;17.44;100.00
5913;BME280;2982;42.684;23.356;2022-09-09T00:09:49;95128.75;;;17.35;100.00
5913;BME280;2982;42.684;23.356;2022-09-09T00:12:31;95123.84;;;17.32;100.00
5913;BME280;2982;42.684;23.356;2022-09-09T00:15:07;95121.16;;;17.33;100.00
5913;BME280;2982;42.684;23.356;2022-09-09T00:20:21;95122.78;;;17.23;100.00
5913;BME280;2982;42.684;23.356;2022-09-09T00:23:10;95124.69;;;17.21;100.00
5913;BME280;2982;42.684;23.356;2022-09-09T00:28:18;95096.91;;;17.15;100.00
5913;BME280;2982;42.684;23.356;2022-09-09T00:30:46;95092.22;;;17.09;100.00
5913;BME280;2982;42.684;23.356;2022-09-09T00:33:13;95098.63;;;17.03;100.00
5913;BME280;2982;42.684;23.356;2022-09-09T00:35:44;95091.63;;;17.05;100.00
5913;BME280;2982;42.684;23.356;2022-09-09T00:38:17;95074.00;;;16.90;100.00
5913;BME280;2982;42.684;23.356;2022-09-09T00:40:58;95081.16;;;16.97;100.00
5913;BME280;2982;42.684;23.356;2022-09-09T00:43:32;95078.44;;;16.99;100.00
5913;BME280;2982;42.684;23.356;2022-09-09T00:51:57;95077.41;;;16.90;100.00
5913;BME280;2982;42.684;23.356;2022-09-09T00:57:25;95078.31;;;16.89;100.00
5913;BME280;2982;42.684;23.356;2022-09-09T01:11:01;95072.13;;;16.81;100.00
5913;BME280;2982;42.684;23.356;2022-09-09T01:13:29;95071.66;;;16.76;100.00
5913;BME280;2982;42.684;23.356;2022-09-09T01:15:55;95068.75;;;16.80;100.00
5913;BME280;2982;42.684;23.356;2022-09-09T01:18:27;95083.00;;;16.84;100.00
5913;BME280;2982;42.684;23.356;2022-09-09T01:28:49;95055.03;;;16.57;100.00
5913;BME280;2982;42.684;23.356;2022-09-09T01:31:19;95074.91;;;16.66;100.00
5913;BME280;2982;42.684;23.356;2022-09-09T01:33:45;95071.75;;;16.63;100.00
5913;BME280;2982;42.684;23.356;2022-09-09T01:39:05;95089.94;;;16.60;100.00
5913;BME280;2982;42.684;23.356;2022-09-09T01:41:30;95084.66;;;16.50;100.00
5913;BME280;2982;42.684;23.356;2022-09-09T01:43:56;95091.19;;;16.54;100.00
5913;BME280;2982;42.684;23.356;2022-09-09T01:46:22;95067.47;;;16.40;100.00
5913;BME280;2982;42.684;23.356;2022-09-09T01:48:50;95085.34;;;16.52;100.00
5913;BME280;2982;42.684;23.356;2022-09-09T01:51:16;95098.97;;;16.53;100.00
5913;BME280;2982;42.684;23.356;2022-09-09T01:53:42;95098.38;;;16.49;100.00
5913;BME280;2982;42.684;23.356;2022-09-09T01:56:30;95101.28;;;16.45;100.00
5913;BME280;2982;42.684;23.356;2022-09-09T02:02:17;95098.13;;;16.41;100.00
5913;BME280;2982;42.684;23.356;2022-09-09T02:04:45;95093.44;;;16.35;100.00
5913;BME280;2982;42.684;23.356;2022-09-09T02:10:09;95093.34;;;16.37;100.00
5913;BME280;2982;42.684;23.356;2022-09-09T02:12:35;95088.56;;;16.32;100.00
5913;BME280;2982;42.684;23.356;2022-09-09T02:15:13;95082.22;;;16.25;100.00
5913;BME280;2982;42.684;23.356;2022-09-09T02:17:42;95073.72;;;16.24;100.00
5913;BME280;2982;42.684;23.356;2022-09-09T02:20:12;95058.66;;;16.09;100.00
5913;BME280;2982;42.684;23.356;2022-09-09T02:22:39;95068.34;;;16.16;100.00
5913;BME280;2982;42.684;23.356;2022-09-09T02:25:07;95071.94;;;16.14;100.00
5913;BME280;2982;42.684;23.356;2022-09-09T02:27:33;95070.06;;;16.16;100.00
5913;BME280;2982;42.684;23.356;2022-09-09T02:30:00;95075.19;;;16.16;100.00
5913;BME280;2982;42.684;23.356;2022-09-09T02:32:27;95081.72;;;16.20;100.00
5913;BME280;2982;42.684;23.356;2022-09-09T02:34:58;95086.53;;;16.24;100.00
5913;BME280;2982;42.684;23.356;2022-09-09T02:37:34;95064.59;;;16.09;100.00
5913;BME280;2982;42.684;23.356;2022-09-09T02:40:03;95090.00;;;16.12;100.00
5913;BME280;2982;42.684;23.356;2022-09-09T02:42:28;95091.00;;;16.10;100.00
5913;BME280;2982;42.684;23.356;2022-09-09T02:44:54;95087.03;;;16.06;100.00
5913;BME280;2982;42.684;23.356;2022-09-09T02:47:28;95091.84;;;16.10;100.00
5913;BME280;2982;42.684;23.356;2022-09-09T02:50:19;95101.81;;;16.02;100.00
5913;BME280;2982;42.684;23.356;2022-09-09T02:53:09;95084.97;;;15.87;100.00
5913;BME280;2982;42.684;23.356;2022-09-09T02:55:48;95099.69;;;15.96;100.00
5913;BME280;2982;42.684;23.356;2022-09-09T02:58:18;95096.91;;;15.99;100.00
5913;BME280;2982;42.684;23.356;2022-09-09T03:00:46;95097.03;;;15.98;100.00
5913;BME280;2982;42.684;23.356;2022-09-09T03:03:12;95090.16;;;15.98;100.00
5913;BME280;2982;42.684;23.356;2022-09-09T03:05:37;95086.78;;;15.98;100.00
5913;BME280;2982;42.684;23.356;2022-09-09T03:08:03;95089.91;;;15.90;100.00
5913;BME280;2982;42.684;23.356;2022-09-09T03:10:28;95089.41;;;15.85;100.00
5913;BME280;2982;42.684;23.356;2022-09-09T03:12:54;95098.66;;;15.99;100.00
5913;BME280;2982;42.684;23.356;2022-09-09T03:15:19;95101.75;;;15.91;100.00
5913;BME280;2982;42.684;23.356;2022-09-09T03:17:45;95098.00;;;15.84;100.00
5913;BME280;2982;42.684;23.356;2022-09-09T03:20:10;95096.69;;;15.78;100.00
5913;BME280;2982;42.684;23.356;2022-09-09T03:22:35;95099.06;;;15.81;100.00
5913;BME280;2982;42.684;23.356;2022-09-09T03:25:01;95092.97;;;15.82;100.00
5913;BME280;2982;42.684;23.356;2022-09-09T03:27:27;95086.06;;;15.72;100.00
5913;BME280;2982;42.684;23.356;2022-09-09T03:29:52;95092.72;;;15.74;100.00
5913;BME280;2982;42.684;23.356;2022-09-09T03:32:18;95091.63;;;15.66;100.00
5913;BME280;2982;42.684;23.356;2022-09-09T03:34:44;95096.41;;;15.70;100.00
5913;BME280;2982;42.684;23.356;2022-09-09T03:37:10;95096.31;;;15.72;100.00
5913;BME280;2982;42.684;23.356;2022-09-09T03:39:35;95094.44;;;15.74;100.00
5913;BME280;2982;42.684;23.356;2022-09-09T03:42:01;95094.09;;;15.67;100.00
5913;BME280;2982;42.684;23.356;2022-09-09T03:44:26;95087.31;;;15.66;100.00
5913;BME280;2982;42.684;23.356;2022-09-09T03:46:51;95087.41;;;15.65;100.00
5913;BME280;2982;42.684;23.356;2022-09-09T03:49:16;95093.91;;;15.58;100.00
5913;BME280;2982;42.684;23.356;2022-09-09T03:51:42;95094.72;;;15.58;100.00
5913;BME280;2982;42.684;23.356;2022-09-09T03:54:07;95094.81;;;15.57;100.00
5913;BME280;2982;42.684;23.356;2022-09-09T03:56:32;95097.16;;;15.60;100.00
5913;BME280;2982;42.684;23.356;2022-09-09T03:58:57;95095.91;;;15.65;100.00
5913;BME280;2982;42.684;23.356;2022-09-09T04:01:23;95096.84;;;15.64;100.00
5913;BME280;2982;42.684;23.356;2022-09-09T04:03:48;95099.41;;;15.64;100.00
5913;BME280;2982;42.684;23.356;2022-09-09T04:06:14;95106.38;;;15.62;100.00
5913;BME280;2982;42.684;23.356;2022-09-09T04:08:39;95108.22;;;15.60;100.00
5913;BME280;2982;42.684;23.356;2022-09-09T04:11:05;95087.41;;;15.65;100.00
5913;BME280;2982;42.684;23.356;2022-09-09T04:13:31;95097.84;;;15.74;100.00
5913;BME280;2982;42.684;23.356;2022-09-09T04:15:58;95109.88;;;15.85;100.00
5913;BME280;2982;42.684;23.356;2022-09-09T04:18:25;95098.72;;;15.86;100.00
5913;BME280;2982;42.684;23.356;2022-09-09T04:20:52;95081.91;;;15.82;100.00
5913;BME280;2982;42.684;23.356;2022-09-09T04:23:19;95105.75;;;15.95;100.00
5913;BME280;2982;42.684;23.356;2022-09-09T04:25:49;95105.38;;;16.12;100.00
5913;BME280;2982;42.684;23.356;2022-09-09T04:28:15;95111.66;;;16.19;100.00
5913;BME280;2982;42.684;23.356;2022-09-09T04:30:41;95105.88;;;16.28;100.00
5913;BME280;2982;42.684;23.356;2022-09-09T04:33:07;95100.22;;;16.36;100.00
5913;BME280;2982;42.684;23.356;2022-09-09T04:35:32;95118.03;;;16.61;100.00
5913;BME280;2982;42.684;23.356;2022-09-09T04:37:58;95112.97;;;16.84;100.00
5913;BME280;2982;42.684;23.356;2022-09-09T04:40:23;95104.13;;;17.10;100.00
5913;BME280;2982;42.684;23.356;2022-09-09T04:42:49;95125.13;;;17.37;100.00
5913;BME280;2982;42.684;23.356;2022-09-09T04:45:14;95125.47;;;17.55;100.00
5913;BME280;2982;42.684;23.356;2022-09-09T04:47:39;95129.13;;;17.64;100.00
5913;BME280;2982;42.684;23.356;2022-09-09T04:50:05;95126.69;;;17.62;100.00
5913;BME280;2982;42.684;23.356;2022-09-09T04:52:30;95116.50;;;17.49;100.00
5913;BME280;2982;42.684;23.356;2022-09-09T04:54:56;95103.41;;;17.52;100.00
5913;BME280;2982;42.684;23.356;2022-09-09T04:57:21;95089.88;;;17.50;100.00
5913;BME280;2982;42.684;23.356;2022-09-09T04:59:46;95113.97;;;18.15;100.00
5913;BME280;2982;42.684;23.356;2022-09-09T05:02:12;95112.66;;;18.73;100.00
5913;BME280;2982;42.684;23.356;2022-09-09T05:04:37;95126.22;;;19.47;100.00
5913;BME280;2982;42.684;23.356;2022-09-09T05:07:02;95124.91;;;20.11;100.00
5913;BME280;2982;42.684;23.356;2022-09-09T05:09:28;95115.47;;;20.60;100.00
5913;BME280;2982;42.684;23.356;2022-09-09T05:11:53;95103.13;;;21.10;100.00
5913;BME280;2982;42.684;23.356;2022-09-09T05:14:18;95084.41;;;21.18;100.00
5913;BME280;2982;42.684;23.356;2022-09-09T05:16:47;95111.53;;;21.68;100.00
5913;BME280;2982;42.684;23.356;2022-09-09T05:19:12;95092.66;;;21.85;100.00
5913;BME280;2982;42.684;23.356;2022-09-09T05:21:37;95124.75;;;22.37;100.00
5913;BME280;2982;42.684;23.356;2022-09-09T05:24:03;95124.97;;;22.79;100.00
5913;BME280;2982;42.684;23.356;2022-09-09T05:26:29;95111.19;;;23.22;100.00
5913;BME280;2982;42.684;23.356;2022-09-09T05:28:54;95099.34;;;23.46;100.00
5913;BME280;2982;42.684;23.356;2022-09-09T05:31:21;95110.31;;;23.74;100.00
5913;BME280;2982;42.684;23.356;2022-09-09T05:33:47;95109.41;;;23.91;100.00
5913;BME280;2982;42.684;23.356;2022-09-09T05:36:17;95093.91;;;24.07;100.00
5913;BME280;2982;42.684;23.356;2022-09-09T05:38:44;95118.78;;;24.42;100.00
5913;BME280;2982;42.684;23.356;2022-09-09T05:41:11;95106.16;;;24.63;100.00
5913;BME280;2982;42.684;23.356;2022-09-09T05:43:36;95121.25;;;24.84;100.00
5913;BME280;2982;42.684;23.356;2022-09-09T05:46:04;95119.47;;;25.09;97.84
5913;BME280;2982;42.684;23.356;2022-09-09T05:48:31;95122.06;;;25.17;96.52
5913;BME280;2982;42.684;23.356;2022-09-09T05:50:58;95118.66;;;25.16;95.69
5913;BME280;2982;42.684;23.356;2022-09-09T05:53:23;95104.19;;;25.22;94.03
5913;BME280;2982;42.684;23.356;2022-09-09T05:55:49;95115.97;;;25.49;92.01
5913;BME280;2982;42.684;23.356;2022-09-09T05:58:14;95118.59;;;25.40;90.89
5913;BME280;2982;42.684;23.356;2022-09-09T06:00:39;95123.16;;;25.38;91.53
5913;BME280;2982;42.684;23.356;2022-09-09T06:03:04;95109.53;;;25.28;91.28
5913;BME280;2982;42.684;23.356;2022-09-09T06:05:30;95129.25;;;24.90;92.14
5913;BME280;2982;42.684;23.356;2022-09-09T06:07:55;95111.72;;;25.01;91.70
5913;BME280;2982;42.684;23.356;2022-09-09T06:10:21;95137.53;;;24.94;89.68
5913;BME280;2982;42.684;23.356;2022-09-09T06:12:46;95126.59;;;24.74;90.55
5913;BME280;2982;42.684;23.356;2022-09-09T06:15:12;95132.28;;;24.53;91.78
5913;BME280;2982;42.684;23.356;2022-09-09T06:17:37;95131.25;;;24.22;94.43
5913;BME280;2982;42.684;23.356;2022-09-09T06:20:02;95126.59;;;23.92;95.92
5913;BME280;2982;42.684;23.356;2022-09-09T06:22:28;95132.66;;;23.41;100.00
5913;BME280;2982;42.684;23.356;2022-09-09T06:24:53;95126.00;;;23.12;100.00
5913;BME280;2982;42.684;23.356;2022-09-09T06:27:18;95137.47;;;22.84;100.00
5913;BME280;2982;42.684;23.356;2022-09-09T06:29:44;95135.91;;;22.73;100.00
5913;BME280;2982;42.684;23.356;2022-09-09T06:32:09;95134.72;;;22.50;100.00
5913;BME280;2982;42.684;23.356;2022-09-09T06:34:37;95132.41;;;22.12;100.00
5913;BME280;2982;42.684;23.356;2022-09-09T06:37:02;95127.84;;;22.23;100.00
5913;BME280;2982;42.684;23.356;2022-09-09T06:39:27;95116.59;;;22.32;100.00
5913;BME280;2982;42.684;23.356;2022-09-09T06:41:53;95117.56;;;22.31;100.00
5913;BME280;2982;42.684;23.356;2022-09-09T06:44:18;95101.06;;;22.15;100.00
5913;BME280;2982;42.684;23.356;2022-09-09T06:46:44;95120.16;;;22.31;100.00
5913;BME280;2982;42.684;23.356;2022-09-09T06:49:09;95112.25;;;22.33;100.00
5913;BME280;2982;42.684;23.356;2022-09-09T06:51:36;95118.94;;;22.26;100.00
5913;BME280;2982;42.684;23.356;2022-09-09T06:54:02;95123.78;;;22.21;100.00
5913;BME280;2982;42.684;23.356;2022-09-09T06:56:32;95133.69;;;22.43;100.00
5913;BME280;2982;42.684;23.356;2022-09-09T06:59:00;95128.72;;;22.50;100.00
5913;BME280;2982;42.684;23.356;2022-09-09T07:01:28;95124.22;;;22.34;100.00
5913;BME280;2982;42.684;23.356;2022-09-09T07:03:56;95141.38;;;22.53;100.00
5913;BME280;2982;42.684;23.356;2022-09-09T07:06:27;95110.03;;;22.73;100.00
5913;BME280;2982;42.684;23.356;2022-09-09T07:08:54;95137.75;;;22.99;100.00
5913;BME280;2982;42.684;23.356;2022-09-09T07:11:21;95138.50;;;23.17;100.00
5913;BME280;2982;42.684;23.356;2022-09-09T07:13:48;95127.44;;;23.33;99.27
5913;BME280;2982;42.684;23.356;2022-09-09T07:16:16;95117.69;;;23.52;98.81
5913;BME280;2982;42.684;23.356;2022-09-09T07:18:42;95132.72;;;23.75;97.76
5913;BME280;2982;42.684;23.356;2022-09-09T07:21:09;95134.25;;;23.93;96.61
5913;BME280;2982;42.684;23.356;2022-09-09T07:23:35;95130.00;;;23.92;95.81
5913;BME280;2982;42.684;23.356;2022-09-09T07:26:00;95132.66;;;24.08;95.08
5913;BME280;2982;42.684;23.356;2022-09-09T07:28:25;95134.03;;;24.29;93.44
5913;BME280;2982;42.684;23.356;2022-09-09T07:30:59;95129.81;;;24.36;93.09
5913;BME280;2982;42.684;23.356;2022-09-09T07:33:25;95120.28;;;24.44;91.02
5913;BME280;2982;42.684;23.356;2022-09-09T07:35:51;95101.94;;;24.54;89.53
5913;BME280;2982;42.684;23.356;2022-09-09T07:38:17;95129.03;;;24.60;88.09
5913;BME280;2982;42.684;23.356;2022-09-09T07:40:42;95113.31;;;24.45;87.31
5913;BME280;2982;42.684;23.356;2022-09-09T07:43:07;95125.28;;;24.38;89.33
5913;BME280;2982;42.684;23.356;2022-09-09T07:45:34;95129.03;;;24.60;89.94
5913;BME280;2982;42.684;23.356;2022-09-09T07:48:00;95133.91;;;24.71;90.05
5913;BME280;2982;42.684;23.356;2022-09-09T07:50:25;95133.28;;;25.09;88.15
5913;BME280;2982;42.684;23.356;2022-09-09T07:52:52;95132.44;;;25.33;88.90
5913;BME280;2982;42.684;23.356;2022-09-09T07:55:17;95127.66;;;25.53;85.28
5913;BME280;2982;42.684;23.356;2022-09-09T07:57:42;95105.88;;;25.62;81.93
5913;BME280;2982;42.684;23.356;2022-09-09T08:00:08;95055.38;;;25.40;84.90
5913;BME280;2982;42.684;23.356;2022-09-09T08:02:34;95126.84;;;25.68;84.28
5913;BME280;2982;42.684;23.356;2022-09-09T08:04:59;95109.91;;;25.72;81.19
5913;BME280;2982;42.684;23.356;2022-09-09T08:07:24;95110.41;;;26.07;79.93
5913;BME280;2982;42.684;23.356;2022-09-09T08:09:50;95118.53;;;26.43;78.37
5913;BME280;2982;42.684;23.356;2022-09-09T08:12:15;95125.38;;;26.89;76.49
5913;BME280;2982;42.684;23.356;2022-09-09T08:14:41;95125.53;;;26.65;74.50
5913;BME280;2982;42.684;23.356;2022-09-09T08:17:06;95118.81;;;26.93;75.95
5913;BME280;2982;42.684;23.356;2022-09-09T08:19:32;95116.84;;;26.95;74.41
5913;BME280;2982;42.684;23.356;2022-09-09T08:21:57;95108.44;;;26.85;75.40
5913;BME280;2982;42.684;23.356;2022-09-09T08:24:22;95118.28;;;26.98;76.68
5913;BME280;2982;42.684;23.356;2022-09-09T08:26:48;95122.16;;;26.87;75.30
5913;BME280;2982;42.684;23.356;2022-09-09T08:29:14;95121.25;;;26.26;76.48
5913;BME280;2982;42.684;23.356;2022-09-09T08:31:53;95122.22;;;26.25;78.71
5913;BME280;2982;42.684;23.356;2022-09-09T08:34:18;95113.66;;;26.62;78.46
5913;BME280;2982;42.684;23.356;2022-09-09T08:36:44;95108.69;;;26.76;77.91
5913;BME280;2982;42.684;23.356;2022-09-09T08:39:12;95105.19;;;26.83;78.48
5913;BME280;2982;42.684;23.356;2022-09-09T08:52:30;95106.66;;;27.96;72.93
5913;BME280;2982;42.684;23.356;2022-09-09T08:55:03;95103.25;;;27.81;72.24
5913;BME280;2982;42.684;23.356;2022-09-09T08:57:33;95097.53;;;27.56;72.55
5913;BME280;2982;42.684;23.356;2022-09-09T08:59:59;95081.59;;;27.66;74.15
5913;BME280;2982;42.684;23.356;2022-09-09T09:02:42;95105.41;;;27.92;74.72
5913;BME280;2982;42.684;23.356;2022-09-09T09:05:19;95103.50;;;28.37;71.91
5913;BME280;2982;42.684;23.356;2022-09-09T09:10:50;95104.28;;;28.31;70.08
5913;BME280;2982;42.684;23.356;2022-09-09T09:13:20;95104.13;;;28.18;71.38
5913;BME280;2982;42.684;23.356;2022-09-09T09:15:50;95098.66;;;28.13;71.42
5913;BME280;2982;42.684;23.356;2022-09-09T09:18:17;95105.19;;;28.23;70.78
5913;BME280;2982;42.684;23.356;2022-09-09T09:23:38;95091.38;;;27.93;71.29
5913;BME280;2982;42.684;23.356;2022-09-09T09:26:07;95092.22;;;28.00;69.15
5913;BME280;2982;42.684;23.356;2022-09-09T09:28:36;95091.50;;;28.21;68.67
5913;BME280;2982;42.684;23.356;2022-09-09T09:31:10;95095.16;;;28.41;69.59
5913;BME280;2982;42.684;23.356;2022-09-09T09:33:56;95103.53;;;28.58;69.12
5913;BME280;2982;42.684;23.356;2022-09-09T09:39:05;95087.84;;;28.58;67.19
5913;BME280;2982;42.684;23.356;2022-09-09T09:41:40;95083.50;;;28.44;70.14
5913;BME280;2982;42.684;23.356;2022-09-09T09:44:25;95086.66;;;28.61;68.07
5913;BME280;2982;42.684;23.356;2022-09-09T09:46:52;95081.22;;;29.05;68.27
5913;BME280;2982;42.684;23.356;2022-09-09T09:49:17;95053.75;;;29.15;65.91
5913;BME280;2982;42.684;23.356;2022-09-09T09:51:43;95073.75;;;29.29;64.88
5913;BME280;2982;42.684;23.356;2022-09-09T09:54:27;95071.25;;;29.15;63.60
5913;BME280;2982;42.684;23.356;2022-09-09T09:56:53;95068.56;;;28.80;65.24
5913;BME280;2982;42.684;23.356;2022-09-09T10:01:53;95050.13;;;28.67;66.04
5913;BME280;2982;42.684;23.356;2022-09-09T10:04:22;95057.69;;;28.77;67.93
5913;BME280;2982;42.684;23.356;2022-09-09T10:06:48;95061.97;;;28.84;69.80
5913;BME280;2982;42.684;23.356;2022-09-09T10:15:10;95079.19;;;29.00;64.52
5913;BME280;2982;42.684;23.356;2022-09-09T10:36:49;95068.34;;;27.68;74.12
5913;BME280;2982;42.684;23.356;2022-09-09T10:39:24;95080.78;;;27.80;75.45
5913;BME280;2982;42.684;23.356;2022-09-09T10:42:05;95084.38;;;27.65;74.46
5913;BME280;2982;42.684;23.356;2022-09-09T10:55:35;95033.69;;;27.44;78.83
5913;BME280;2982;42.684;23.356;2022-09-09T10:58:03;95082.03;;;27.55;78.43
5913;BME280;2982;42.684;23.356;2022-09-09T11:00:46;95079.16;;;27.50;82.41
5913;BME280;2982;42.684;23.356;2022-09-09T11:03:19;95075.00;;;27.41;81.56
5913;BME280;2982;42.684;23.356;2022-09-09T11:05:58;95068.53;;;27.37;81.86
5913;BME280;2982;42.684;23.356;2022-09-09T11:08:29;95076.53;;;27.35;81.12
5913;BME280;2982;42.684;23.356;2022-09-09T11:11:34;95077.88;;;27.31;81.27
5913;BME280;2982;42.684;23.356;2022-09-09T11:16:40;95090.44;;;26.98;82.14
5913;BME280;2982;42.684;23.356;2022-09-09T11:21:52;95068.69;;;27.06;83.67
5913;BME280;2982;42.684;23.356;2022-09-09T11:24:25;95070.41;;;27.28;84.15
5913;BME280;2982;42.684;23.356;2022-09-09T11:26:57;95056.47;;;27.36;83.03
5913;BME280;2982;42.684;23.356;2022-09-09T11:33:13;95052.53;;;27.54;83.38
5913;BME280;2982;42.684;23.356;2022-09-09T11:35:56;95051.25;;;27.80;80.96
5913;BME280;2982;42.684;23.356;2022-09-09T11:41:01;95038.66;;;28.04;80.00
5913;BME280;2982;42.684;23.356;2022-09-09T11:46:04;95031.19;;;27.80;81.68
5913;BME280;2982;42.684;23.356;2022-09-09T11:48:41;95025.03;;;27.88;82.94
5913;BME280;2982;42.684;23.356;2022-09-09T11:51:07;95016.78;;;28.06;82.68
5913;BME280;2982;42.684;23.356;2022-09-09T11:53:35;94998.22;;;28.15;81.09
5913;BME280;2982;42.684;23.356;2022-09-09T11:56:02;94989.22;;;28.18;78.52
5913;BME280;2982;42.684;23.356;2022-09-09T11:58:31;94991.94;;;27.95;79.66
5913;BME280;2982;42.684;23.356;2022-09-09T12:00:59;94995.63;;;27.79;81.22
5913;BME280;2982;42.684;23.356;2022-09-09T12:12:36;95000.19;;;28.34;80.09
5913;BME280;2982;42.684;23.356;2022-09-09T12:17:47;94986.59;;;28.18;81.58
5913;BME280;2982;42.684;23.356;2022-09-09T12:28:11;94975.16;;;28.68;82.11
5913;BME280;2982;42.684;23.356;2022-09-09T12:33:13;94968.22;;;29.16;77.89
5913;BME280;2982;42.684;23.356;2022-09-09T12:35:39;94963.31;;;29.34;77.51
5913;BME280;2982;42.684;23.356;2022-09-09T12:38:06;94963.19;;;29.21;79.27
5913;BME280;2982;42.684;23.356;2022-09-09T12:40:35;94955.22;;;28.88;79.27
5913;BME280;2982;42.684;23.356;2022-09-09T12:43:14;94954.69;;;28.71;82.64
5913;BME280;2982;42.684;23.356;2022-09-09T12:45:41;94943.13;;;28.59;85.37
5913;BME280;2982;42.684;23.356;2022-09-09T12:48:08;94946.16;;;28.63;84.71
5913;BME280;2982;42.684;23.356;2022-09-09T12:50:37;94953.81;;;28.64;83.79
5913;BME280;2982;42.684;23.356;2022-09-09T12:53:10;94949.50;;;28.78;83.21
5913;BME280;2982;42.684;23.356;2022-09-09T12:55:38;94947.63;;;29.00;84.06
5913;BME280;2982;42.684;23.356;2022-09-09T12:58:05;94942.38;;;29.00;82.80
5913;BME280;2982;42.684;23.356;2022-09-09T13:00:32;94944.81;;;29.01;81.00
5913;BME280;2982;42.684;23.356;2022-09-09T13:03:00;94943.59;;;29.04;82.62
5913;BME280;2982;42.684;23.356;2022-09-09T13:05:43;94938.41;;;29.10;81.04
5913;BME280;2982;42.684;23.356;2022-09-09T13:08:11;94925.94;;;29.12;82.56
5913;BME280;2982;42.684;23.356;2022-09-09T13:10:46;94907.00;;;29.04;80.67
5913;BME280;2982;42.684;23.356;2022-09-09T13:13:22;94929.41;;;29.19;81.09
5913;BME280;2982;42.684;23.356;2022-09-09T13:15:59;94916.34;;;28.78;82.69
5913;BME280;2982;42.684;23.356;2022-09-09T13:18:36;94929.63;;;28.83;83.33
5913;BME280;2982;42.684;23.356;2022-09-09T13:21:02;94912.81;;;28.65;84.20
5913;BME280;2982;42.684;23.356;2022-09-09T13:23:30;94936.19;;;28.73;83.74
5913;BME280;2982;42.684;23.356;2022-09-09T13:26:02;94927.81;;;28.56;83.04
5913;BME280;2982;42.684;23.356;2022-09-09T13:28:29;94909.38;;;28.64;84.76
5913;BME280;2982;42.684;23.356;2022-09-09T13:31:06;94890.09;;;28.37;85.20
5913;BME280;2982;42.684;23.356;2022-09-09T13:33:44;94904.06;;;28.23;86.04
5913;BME280;2982;42.684;23.356;2022-09-09T13:36:11;94911.09;;;28.01;87.37
5913;BME280;2982;42.684;23.356;2022-09-09T13:38:56;94903.91;;;28.10;87.55
5913;BME280;2982;42.684;23.356;2022-09-09T13:41:33;94913.50;;;28.03;88.22
5913;BME280;2982;42.684;23.356;2022-09-09T13:44:00;94894.13;;;27.91;87.52
5913;BME280;2982;42.684;23.356;2022-09-09T13:49:03;94903.50;;;27.64;90.21
5913;BME280;2982;42.684;23.356;2022-09-09T13:51:45;94895.44;;;27.80;91.76
5913;BME280;2982;42.684;23.356;2022-09-09T13:54:13;94885.69;;;27.89;92.04
5913;BME280;2982;42.684;23.356;2022-09-09T13:56:40;94873.69;;;27.94;92.00
5913;BME280;2982;42.684;23.356;2022-09-09T13:59:09;94891.94;;;28.16;90.66
5913;BME280;2982;42.684;23.356;2022-09-09T14:01:36;94867.81;;;28.14;90.16
5913;BME280;2982;42.684;23.356;2022-09-09T14:04:01;94885.16;;;28.21;89.78
5913;BME280;2982;42.684;23.356;2022-09-09T14:06:26;94889.28;;;28.37;88.81
5913;BME280;2982;42.684;23.356;2022-09-09T14:08:52;94863.88;;;28.24;87.77
5913;BME280;2982;42.684;23.356;2022-09-09T14:11:18;94887.72;;;27.93;89.92
5913;BME280;2982;42.684;23.356;2022-09-09T14:13:43;94867.75;;;27.86;90.26
5913;BME280;2982;42.684;23.356;2022-09-09T14:16:09;94830.13;;;27.74;90.75
5913;BME280;2982;42.684;23.356;2022-09-09T14:18:35;94879.88;;;28.15;87.99
5913;BME280;2982;42.684;23.356;2022-09-09T14:21:00;94875.59;;;28.07;88.95
5913;BME280;2982;42.684;23.356;2022-09-09T14:23:25;94870.28;;;28.00;87.97
5913;BME280;2982;42.684;23.356;2022-09-09T14:25:51;94875.16;;;27.82;89.84
5913;BME280;2982;42.684;23.356;2022-09-09T14:28:17;94868.63;;;27.72;91.13
5913;BME280;2982;42.684;23.356;2022-09-09T14:30:43;94842.31;;;27.67;91.36
5913;BME280;2982;42.684;23.356;2022-09-09T14:33:11;94876.47;;;27.72;91.13
5913;BME280;2982;42.684;23.356;2022-09-09T14:35:36;94869.97;;;27.46;92.32
5913;BME280;2982;42.684;23.356;2022-09-09T14:38:03;94876.81;;;27.47;92.44
5913;BME280;2982;42.684;23.356;2022-09-09T14:40:29;94870.16;;;27.45;92.70
5913;BME280;2982;42.684;23.356;2022-09-09T14:42:54;94869.97;;;27.46;93.57
5913;BME280;2982;42.684;23.356;2022-09-09T14:45:19;94857.16;;;27.30;91.44
5913;BME280;2982;42.684;23.356;2022-09-09T14:47:45;94863.31;;;27.23;91.55
5913;BME280;2982;42.684;23.356;2022-09-09T14:50:10;94845.81;;;27.02;92.45
5913;BME280;2982;42.684;23.356;2022-09-09T14:52:35;94844.50;;;26.91;94.24
5913;BME280;2982;42.684;23.356;2022-09-09T14:55:01;94869.03;;;26.97;94.67
5913;BME280;2982;42.684;23.356;2022-09-09T14:57:26;94863.72;;;26.90;94.07
5913;BME280;2982;42.684;23.356;2022-09-09T14:59:51;94860.31;;;26.90;94.26
5913;BME280;2982;42.684;23.356;2022-09-09T15:02:16;94867.56;;;26.80;94.82
5913;BME280;2982;42.684;23.356;2022-09-09T15:04:42;94870.28;;;26.71;96.24
5913;BME280;2982;42.684;23.356;2022-09-09T15:07:07;94864.91;;;26.58;96.88
5913;BME280;2982;42.684;23.356;2022-09-09T15:09:32;94860.06;;;26.41;98.05
5913;BME280;2982;42.684;23.356;2022-09-09T15:11:57;94869.72;;;26.47;99.87
5913;BME280;2982;42.684;23.356;2022-09-09T15:14:23;94885.28;;;26.55;99.47
5913;BME280;2982;42.684;23.356;2022-09-09T15:16:48;94870.19;;;26.36;100.00
5913;BME280;2982;42.684;23.356;2022-09-09T15:19:13;94887.34;;;26.45;100.00
5913;BME280;2982;42.684;23.356;2022-09-09T15:21:39;94868.28;;;26.29;100.00
5913;BME280;2982;42.684;23.356;2022-09-09T15:24:05;94875.47;;;26.42;100.00
5913;BME280;2982;42.684;23.356;2022-09-09T15:26:31;94888.63;;;26.49;100.00
5913;BME280;2982;42.684;23.356;2022-09-09T15:28:56;94862.91;;;26.31;100.00
5913;BME280;2982;42.684;23.356;2022-09-09T15:31:27;94874.88;;;26.40;100.00